CVJ weather

General Mariano Matamoros Airport
Moreloa, Mexico

Public forecast

Using degrees Celsius for public forecast. Weather courtesy of forecast.io.

METAR (pilot weather report)

Report is more than 6 hours old.

Retrieved 2019/06/18 23:57 UTC (9 hours ago):

MMCB 182357Z RTD 26003KT 10SM FEW030 SCT080 BKN200 28/17 A3005 RMK 8/163 CB N HZY MSGTX MMMX

TAF (pilot weather forecast)

Retrieved 2019/06/19 06:27 UTC (3 hours ago):

TAF TAF MMCB 190426Z 1906/2006 26004KT 6SM -RA SCT020CB BKN080 BKN200 FM191000 00000KT 5SM HZ SCT015 SCT080 BKN200 TEMPO 1911/1915 1 1/2SM BR BKN006 FM191600 22006KT 6SM HZ SCT020 SCT080 BKN200 FM191800 22008KT P6SM BKN020 BKN080 OVC200 PROB40 1922/2002 4SM TSRA BKN020CB FM200500 13005KT P6SM SCT020 BKN090 BKN230